Time;durP1;ratioP1;P1;durP2;ratioP2;P2;SDS_P1;SDS_P2;PMS_P1;PMS_P2;Temp;Humidity;BMP_temperature;BMP_pressure;BME280_temperature;BME280_humidity;BME280_pressure;Samples;Min_cycle;Max_cycle;Signal;HPM_P1;HPM_P2
2021/12/13 00:00:00;;;;;;;7.23;3.70;;;;;;;5.07;100.00;99175.19;5076898;28;20272;-73
2021/12/13 00:02:31;;;;;;;6.33;3.47;;;;;;;5.04;100.00;99165.78;5076656;28;20189;-73
2021/12/13 00:05:05;;;;;;;5.13;3.33;;;;;;;5.10;100.00;99170.41;5076236;28;20221;-73
2021/12/13 00:07:36;;;;;;;5.07;3.20;;;;;;;5.09;100.00;99178.47;5076502;28;20213;-73
2021/12/13 00:10:14;;;;;;;5.47;3.60;;;;;;;5.04;100.00;99171.06;5076450;28;20189;-73
2021/12/13 00:12:47;;;;;;;7.17;3.73;;;;;;;5.03;100.00;99173.84;5076547;28;20192;-73
2021/12/13 00:15:27;;;;;;;5.90;3.57;;;;;;;5.03;100.00;99165.94;5076735;28;20228;-73
2021/12/13 00:17:55;;;;;;;5.90;3.87;;;;;;;5.02;100.00;99178.28;5076469;28;20188;-73
2021/12/13 00:20:29;;;;;;;6.17;3.30;;;;;;;5.05;100.00;99174.50;5076490;28;20495;-73
2021/12/13 00:23:04;;;;;;;4.20;3.27;;;;;;;5.11;100.00;99166.00;5076458;28;20192;-73
2021/12/13 00:25:32;;;;;;;6.80;4.10;;;;;;;5.05;100.00;99167.44;5076691;28;20534;-73
2021/12/13 00:28:05;;;;;;;4.83;3.90;;;;;;;5.07;100.00;99164.66;5076262;28;20212;-73
2021/12/13 00:30:55;;;;;;;6.53;4.00;;;;;;;5.02;100.00;99166.94;5076051;28;20599;-73
2021/12/13 00:33:46;;;;;;;7.87;4.07;;;;;;;4.93;100.00;99167.88;5076299;28;20188;-73
2021/12/13 00:36:28;;;;;;;4.37;3.93;;;;;;;4.94;100.00;99169.50;5075866;28;20208;-73
2021/12/13 00:39:03;;;;;;;9.27;3.80;;;;;;;4.93;100.00;99173.94;5076322;28;20185;-73
2021/12/13 00:41:31;;;;;;;7.17;4.63;;;;;;;4.95;100.00;99177.28;5076259;28;20202;-73
2021/12/13 00:44:06;;;;;;;9.83;4.13;;;;;;;4.96;100.00;99178.91;5075819;28;20667;-73
2021/12/13 00:46:34;;;;;;;8.40;4.30;;;;;;;4.98;100.00;99181.41;5076194;28;20189;-73
2021/12/13 00:49:04;;;;;;;7.77;4.83;;;;;;;4.97;100.00;99177.94;5076107;28;20224;-73
2021/12/13 00:51:37;;;;;;;7.30;4.37;;;;;;;4.97;100.00;99174.47;5076135;28;20193;-73
2021/12/13 00:54:14;;;;;;;6.97;4.63;;;;;;;4.98;100.00;99176.13;5076038;28;20231;-73
2021/12/13 00:56:59;;;;;;;5.97;4.20;;;;;;;4.91;100.00;99175.94;5075800;28;20200;-73
2021/12/13 00:59:28;;;;;;;6.47;4.97;;;;;;;4.92;100.00;99182.00;5076084;28;20254;-73
2021/12/13 01:02:07;;;;;;;7.10;4.83;;;;;;;4.95;100.00;99177.28;5075995;28;20185;-73
2021/12/13 01:04:56;;;;;;;7.67;4.90;;;;;;;5.00;100.00;99180.25;5075931;28;20231;-73
2021/12/13 01:07:35;;;;;;;7.00;4.80;;;;;;;4.94;100.00;99174.78;5076738;28;20481;-73
2021/12/13 01:10:29;;;;;;;6.87;5.10;;;;;;;4.97;100.00;99177.13;5077609;28;20200;-73
2021/12/13 01:12:58;;;;;;;8.40;4.70;;;;;;;4.94;100.00;99175.63;5079678;28;20200;-73
2021/12/13 01:15:40;;;;;;;8.03;4.77;;;;;;;4.97;100.00;99175.28;5079793;28;20220;-73
2021/12/13 01:18:23;;;;;;;9.07;5.20;;;;;;;4.97;100.00;99179.75;5080229;28;20201;-73
2021/12/13 01:21:15;;;;;;;8.90;4.87;;;;;;;4.96;100.00;99173.66;5079492;28;20599;-73
2021/12/13 01:23:48;;;;;;;6.60;5.07;;;;;;;4.97;100.00;99177.13;5079392;28;20280;-73
2021/12/13 01:26:36;;;;;;;13.63;5.60;;;;;;;4.94;100.00;99174.78;5079400;28;20189;-73
2021/12/13 01:29:13;;;;;;;8.07;5.10;;;;;;;4.94;100.00;99174.78;5079541;28;20205;-73
2021/12/13 01:31:48;;;;;;;8.00;4.90;;;;;;;4.93;100.00;99181.84;5079306;28;20189;-73
2021/12/13 01:34:16;;;;;;;8.57;5.07;;;;;;;4.95;100.00;99176.44;5078875;28;20226;-73
2021/12/13 01:36:56;;;;;;;13.90;5.40;;;;;;;4.93;100.00;99181.84;5079214;28;20192;-73
2021/12/13 01:39:27;;;;;;;11.27;5.30;;;;;;;4.96;100.00;99188.63;5078819;28;20184;-73
2021/12/13 01:42:01;;;;;;;8.20;5.20;;;;;;;5.01;100.00;99179.25;5079097;28;20220;-73
2021/12/13 01:44:34;;;;;;;8.87;5.83;;;;;;;5.00;100.00;99174.97;5079014;28;20219;-73
2021/12/13 01:47:05;;;;;;;12.20;6.10;;;;;;;5.04;100.00;99188.66;5078674;28;20197;-73
2021/12/13 01:49:38;;;;;;;16.03;6.20;;;;;;;4.98;100.00;99186.66;5078983;28;20196;-73
2021/12/13 01:52:15;;;;;;;13.20;7.00;;;;;;;4.99;100.00;99185.69;5078414;28;20496;-73
2021/12/13 01:54:42;;;;;;;9.30;5.77;;;;;;;4.97;100.00;99190.28;5078792;28;20251;-73
2021/12/13 01:57:24;;;;;;;16.10;7.87;;;;;;;4.94;100.00;99191.44;5078681;28;20200;-73
2021/12/13 01:59:57;;;;;;;15.37;8.47;;;;;;;4.90;100.00;99187.47;5078817;28;20276;-73
2021/12/13 02:02:36;;;;;;;11.30;7.70;;;;;;;4.92;100.00;99187.28;5078421;28;20602;-72
2021/12/13 02:05:30;;;;;;;11.07;8.30;;;;;;;4.95;100.00;99184.34;5078609;28;20224;-73
2021/12/13 02:08:16;;;;;;;15.00;8.40;;;;;;;4.94;100.00;99183.53;5078246;28;20213;-73
2021/12/13 02:10:49;;;;;;;11.63;9.50;;;;;;;4.97;100.00;99193.75;5078017;28;20212;-73
2021/12/13 02:13:42;;;;;;;15.70;9.40;;;;;;;4.96;100.00;99183.34;5078558;28;20201;-73
2021/12/13 02:18:57;;;;;;;12.70;9.33;;;;;;;4.95;100.00;99181.69;5078733;28;20254;-73
2021/12/13 02:21:35;;;;;;;16.17;10.37;;;;;;;4.96;100.00;99183.34;5078246;28;20193;-73
2021/12/13 02:24:05;;;;;;;15.60;9.40;;;;;;;4.98;100.00;99184.84;5078225;28;20221;-73
2021/12/13 02:26:36;;;;;;;14.90;10.60;;;;;;;4.97;100.00;99179.75;5078235;28;20491;-73
2021/12/13 02:29:30;;;;;;;16.97;11.17;;;;;;;4.96;100.00;99176.28;5078694;28;20212;-73
2021/12/13 02:32:00;;;;;;;17.07;10.20;;;;;;;5.02;100.00;99186.19;5078169;28;20491;-73
2021/12/13 02:34:29;;;;;;;11.20;9.13;;;;;;;4.99;100.00;99183.88;5078019;28;20232;-73
2021/12/13 02:36:56;;;;;;;20.67;10.57;;;;;;;4.99;100.00;99185.69;5078074;28;20193;-73
2021/12/13 02:39:27;;;;;;;16.43;11.47;;;;;;;4.95;100.00;99189.59;5077658;28;20650;-73
2021/12/13 02:41:54;;;;;;;19.00;11.30;;;;;;;4.95;100.00;99185.16;5077671;28;20607;-73
2021/12/13 02:44:28;;;;;;;17.23;11.03;;;;;;;4.99;100.00;99183.88;5077771;28;20239;-73
2021/12/13 02:46:58;;;;;;;15.07;10.70;;;;;;;4.97;100.00;99192.94;5077844;28;20193;-73
2021/12/13 02:49:25;;;;;;;18.40;10.00;;;;;;;4.95;100.00;99186.97;5077711;28;20295;-73
2021/12/13 02:51:55;;;;;;;16.57;9.70;;;;;;;4.98;100.00;99191.94;5077727;28;20201;-73
2021/12/13 02:54:35;;;;;;;16.80;10.53;;;;;;;4.99;100.00;99185.69;5077578;28;20239;-73
2021/12/13 02:57:13;;;;;;;18.10;10.50;;;;;;;5.02;100.00;99188.00;5077563;28;20231;-73
2021/12/13 02:59:45;;;;;;;14.17;9.73;;;;;;;5.05;100.00;99187.69;5077530;28;20189;-73
2021/12/13 03:02:27;;;;;;;12.90;8.83;;;;;;;5.09;100.00;99181.94;5077530;28;20553;-73
2021/12/13 03:04:55;;;;;;;16.30;9.83;;;;;;;5.03;100.00;99185.22;5077447;28;20225;-73
2021/12/13 03:07:34;;;;;;;17.77;10.80;;;;;;;5.03;100.00;99187.03;5077363;28;20205;-73
2021/12/13 03:10:08;;;;;;;17.47;10.67;;;;;;;5.01;100.00;99181.06;5077003;28;20517;-72
2021/12/13 03:12:34;;;;;;;13.17;9.90;;;;;;;5.05;100.00;99188.53;5077347;28;20234;-73
2021/12/13 03:15:07;;;;;;;17.70;10.73;;;;;;;5.03;100.00;99185.22;5077231;28;20232;-73
2021/12/13 03:17:42;;;;;;;16.47;10.40;;;;;;;5.02;100.00;99186.19;5076936;28;20185;-73
2021/12/13 03:20:53;;;;;;;14.57;9.97;;;;;;;5.03;100.00;99185.22;5077221;28;20535;-73
2021/12/13 03:23:29;;;;;;;11.63;8.60;;;;;;;5.13;100.00;99172.75;5077166;28;20216;-73
2021/12/13 03:26:25;;;;;;;13.67;9.00;;;;;;;5.06;100.00;99178.81;5077413;28;20197;-73
2021/12/13 03:28:59;;;;;;;14.27;9.70;;;;;;;5.03;100.00;99179.13;5076966;28;20212;-72
2021/12/13 03:31:27;;;;;;;16.93;10.07;;;;;;;5.09;100.00;99191.66;5077031;28;20189;-73
2021/12/13 03:33:59;;;;;;;23.47;11.40;;;;;;;5.07;100.00;99193.63;5076458;28;20224;-73
2021/12/13 03:36:43;;;;;;;14.77;9.93;;;;;;;5.06;100.00;99192.81;5076934;28;20192;-73
2021/12/13 03:39:17;;;;;;;15.33;10.87;;;;;;;5.05;100.00;99190.31;5076943;28;20492;-73
2021/12/13 03:41:49;;;;;;;14.30;9.93;;;;;;;5.05;100.00;99185.03;5077421;28;20211;-73
2021/12/13 03:44:20;;;;;;;16.70;10.33;;;;;;;5.03;100.00;99187.88;5076724;28;20228;-73
2021/12/13 03:46:49;;;;;;;17.20;10.57;;;;;;;5.02;100.00;99188.00;5076988;28;20193;-73
2021/12/13 03:49:20;;;;;;;17.57;10.63;;;;;;;5.05;100.00;99187.69;5077007;28;20212;-73
2021/12/13 03:51:47;;;;;;;13.70;10.07;;;;;;;5.05;100.00;99182.41;5076748;28;20189;-73
2021/12/13 03:54:17;;;;;;;21.30;9.97;;;;;;;5.03;100.00;99185.22;5076598;28;20224;-73
2021/12/13 03:56:49;;;;;;;13.53;9.63;;;;;;;5.02;100.00;99188.00;5076351;28;20487;-73
2021/12/13 03:59:20;;;;;;;15.47;9.40;;;;;;;5.04;100.00;99191.31;5076331;28;20234;-73
2021/12/13 04:01:55;;;;;;;11.47;8.60;;;;;;;5.13;100.00;99190.38;5076636;28;20188;-73
2021/12/13 04:04:46;;;;;;;19.03;8.83;;;;;;;5.06;100.00;99189.34;5076158;28;20231;-73
2021/12/13 04:07:25;;;;;;;15.43;9.13;;;;;;;5.05;100.00;99187.69;5076422;28;20204;-73
2021/12/13 04:09:55;;;;;;;18.10;9.03;;;;;;;5.05;100.00;99183.25;5076435;28;20234;-73
2021/12/13 04:12:29;;;;;;;13.97;8.63;;;;;;;5.06;100.00;99186.72;5076134;28;20213;-73
2021/12/13 04:15:01;;;;;;;11.67;8.67;;;;;;;5.07;100.00;99196.28;5076250;28;20311;-73
2021/12/13 04:17:44;;;;;;;16.23;8.60;;;;;;;5.06;100.00;99192.81;5076099;28;20588;-73
2021/12/13 04:20:16;;;;;;;21.30;8.70;;;;;;;5.03;100.00;99192.28;5076377;28;20196;-73
2021/12/13 04:22:51;;;;;;;13.77;8.07;;;;;;;5.07;100.00;99194.44;5076330;28;20189;-73
2021/12/13 04:25:24;;;;;;;11.63;8.50;;;;;;;5.10;100.00;99195.94;5076147;28;20224;-73
2021/12/13 04:28:06;;;;;;;10.63;8.30;;;;;;;5.11;100.00;99205.53;5075628;28;20223;-73
2021/12/13 04:30:47;;;;;;;13.90;8.33;;;;;;;5.12;100.00;99196.63;5076090;28;20208;-73
2021/12/13 04:33:23;;;;;;;11.90;8.17;;;;;;;5.13;100.00;99204.38;5076072;28;20193;-73
2021/12/13 04:35:53;;;;;;;12.73;8.53;;;;;;;5.11;100.00;99208.16;5075968;28;20216;-73
2021/12/13 04:38:25;;;;;;;13.10;8.23;;;;;;;5.13;100.00;99207.03;5075701;28;20576;-73
2021/12/13 04:40:54;;;;;;;16.77;8.97;;;;;;;5.14;100.00;99213.09;5076049;28;20252;-73
2021/12/13 04:43:23;;;;;;;12.10;8.50;;;;;;;5.13;100.00;99208.81;5075928;28;20205;-73
2021/12/13 04:45:56;;;;;;;15.67;8.57;;;;;;;5.13;100.00;99216.72;5078831;28;20224;-73
2021/12/13 04:48:28;;;;;;;10.10;8.17;;;;;;;5.14;100.00;99213.09;5079833;28;20205;-72
2021/12/13 04:51:16;;;;;;;14.33;8.53;;;;;;;5.13;100.00;99217.56;5079908;28;20193;-73
2021/12/13 04:53:50;;;;;;;11.10;8.50;;;;;;;5.10;100.00;99217.03;5080278;28;20211;-73
2021/12/13 04:56:22;;;;;;;12.67;8.47;;;;;;;5.13;100.00;99216.72;5079905;28;20185;-73
2021/12/13 04:58:51;;;;;;;13.53;9.97;;;;;;;5.14;100.00;99211.31;5078874;28;20189;-72
2021/12/13 05:01:20;;;;;;;15.43;10.10;;;;;;;5.13;100.00;99211.44;5079195;28;20612;-72
2021/12/13 05:03:52;;;;;;;17.40;10.67;;;;;;;5.12;100.00;99215.06;5079131;28;20685;-72
2021/12/13 05:06:27;;;;;;;15.83;10.03;;;;;;;5.16;100.00;99219.06;5079141;28;20189;-72
2021/12/13 05:08:56;;;;;;;18.07;9.77;;;;;;;5.16;100.00;99219.88;5079072;28;20501;-72
2021/12/13 05:11:24;;;;;;;16.93;10.10;;;;;;;5.17;100.00;99220.69;5079011;28;20607;-72
2021/12/13 05:13:55;;;;;;;15.93;10.87;;;;;;;5.19;100.00;99219.56;5079346;28;20526;-72
2021/12/13 05:16:51;;;;;;;15.60;9.97;;;;;;;5.19;100.00;99221.34;5079420;28;20357;-73
2021/12/13 05:19:29;;;;;;;13.40;10.17;;;;;;;5.20;100.00;99223.84;5079090;28;20611;-72
2021/12/13 05:21:59;;;;;;;15.10;10.37;;;;;;;5.18;100.00;99224.97;5078963;28;20607;-72
2021/12/13 05:24:30;;;;;;;13.53;9.73;;;;;;;5.20;100.00;99229.13;5078916;28;20224;-73
2021/12/13 05:27:02;;;;;;;15.13;9.67;;;;;;;5.20;100.00;99229.13;5078944;28;20196;-72
2021/12/13 05:29:40;;;;;;;18.50;9.53;;;;;;;5.19;100.00;99234.53;5079291;28;20216;-73
2021/12/13 05:32:27;;;;;;;16.57;9.90;;;;;;;5.19;100.00;99227.47;5078866;28;20197;-72
2021/12/13 05:35:01;;;;;;;15.30;10.50;;;;;;;5.21;100.00;99224.69;5079005;28;20496;-72
2021/12/13 05:37:39;;;;;;;12.00;9.67;;;;;;;5.19;100.00;99237.19;5078409;28;20595;-72
2021/12/13 05:40:13;;;;;;;10.77;9.03;;;;;;;5.22;100.00;99242.16;5078825;28;20487;-72
2021/12/13 05:42:50;;;;;;;16.13;10.20;;;;;;;5.20;100.00;99246.75;5078536;28;20195;-72
2021/12/13 05:45:30;;;;;;;16.83;9.77;;;;;;;5.20;100.00;99246.75;5078284;28;20224;-73
2021/12/13 05:48:09;;;;;;;15.30;9.97;;;;;;;5.24;100.00;99253.38;5078436;28;20196;-72
2021/12/13 05:50:58;;;;;;;14.87;10.30;;;;;;;5.22;100.00;99252.69;5078662;28;20204;-73
2021/12/13 05:53:32;;;;;;;16.83;10.83;;;;;;;5.26;100.00;99256.66;5078542;28;20222;-72
2021/12/13 05:56:09;;;;;;;18.30;10.33;;;;;;;5.27;100.00;99256.53;5077979;28;20199;-72
2021/12/13 05:58:36;;;;;;;16.47;9.70;;;;;;;5.26;100.00;99259.31;5078191;28;20599;-72
2021/12/13 06:01:11;;;;;;;15.07;10.33;;;;;;;5.29;100.00;99253.75;5079183;28;20336;-73
2021/12/13 06:03:40;;;;;;;16.10;9.50;;;;;;;5.29;100.00;99251.09;5078019;28;20250;-72
2021/12/13 06:06:15;;;;;;;15.97;10.23;;;;;;;5.29;100.00;99254.53;5078084;28;20188;-72
2021/12/13 06:08:49;;;;;;;16.13;11.03;;;;;;;5.29;100.00;99256.38;5078106;28;20216;-72
2021/12/13 06:11:33;;;;;;;19.57;12.33;;;;;;;5.27;100.00;99256.53;5078357;28;20219;-72
2021/12/13 06:14:14;;;;;;;18.23;11.63;;;;;;;5.29;100.00;99254.53;5077719;28;20568;-73
2021/12/13 06:16:51;;;;;;;15.00;11.73;;;;;;;5.30;100.00;99258.81;5077193;28;20185;-72
2021/12/13 06:19:41;;;;;;;16.67;12.50;;;;;;;5.36;100.00;99257.38;5077933;28;20184;-73
2021/12/13 06:22:19;;;;;;;17.90;12.20;;;;;;;5.32;100.00;99258.69;5077514;28;20188;-72
2021/12/13 06:24:52;;;;;;;16.13;12.33;;;;;;;5.31;100.00;99252.59;5077356;28;20311;-73
2021/12/13 06:27:27;;;;;;;15.13;11.87;;;;;;;5.29;100.00;99253.75;5077266;28;20189;-72
2021/12/13 06:29:54;;;;;;;17.77;11.63;;;;;;;5.31;100.00;99255.22;5077316;28;20637;-72
2021/12/13 06:32:26;;;;;;;14.90;11.87;;;;;;;5.33;100.00;99263.00;5077313;28;20193;-72
2021/12/13 06:34:53;;;;;;;16.03;11.87;;;;;;;5.31;100.00;99267.56;5077089;28;20228;-73
2021/12/13 06:37:30;;;;;;;16.37;11.83;;;;;;;5.30;100.00;99266.72;5076938;28;20193;-72
2021/12/13 06:40:18;;;;;;;15.37;12.00;;;;;;;5.30;100.00;99266.72;5077373;28;20284;-72
2021/12/13 06:42:45;;;;;;;16.90;11.83;;;;;;;5.29;100.00;99270.38;5077106;28;20588;-72
2021/12/13 06:45:23;;;;;;;14.57;12.07;;;;;;;5.32;100.00;99269.22;5077322;28;20231;-73
2021/12/13 06:47:52;;;;;;;12.63;11.23;;;;;;;5.34;100.00;99267.28;5076995;28;20503;-72
2021/12/13 06:50:26;;;;;;;14.57;11.10;;;;;;;5.37;100.00;99261.66;5077084;28;20515;-72
2021/12/13 06:53:08;;;;;;;15.07;10.63;;;;;;;5.36;100.00;99260.84;5076336;28;20598;-73
2021/12/13 06:55:35;;;;;;;14.30;11.47;;;;;;;5.37;100.00;99261.66;5076915;28;20221;-72
2021/12/13 06:58:11;;;;;;;14.23;11.10;;;;;;;5.34;100.00;99256.72;5076731;28;20583;-72
2021/12/13 07:00:38;;;;;;;13.70;11.13;;;;;;;5.34;100.00;99267.28;5076892;28;20492;-73
2021/12/13 07:03:09;;;;;;;13.13;10.60;;;;;;;5.38;100.00;99272.06;5076718;28;20196;-72
2021/12/13 07:05:45;;;;;;;17.43;12.03;;;;;;;5.38;100.00;99284.44;5076862;28;20220;-73
2021/12/13 07:08:20;;;;;;;15.67;11.37;;;;;;;5.41;100.00;99276.19;5075946;28;20238;-72
2021/12/13 07:10:57;;;;;;;17.33;11.03;;;;;;;5.40;100.00;99277.19;5076552;28;20569;-72
2021/12/13 07:13:31;;;;;;;15.07;11.33;;;;;;;5.47;100.00;99275.59;5076588;28;20222;-72
2021/12/13 07:16:00;;;;;;;16.73;10.30;;;;;;;5.50;100.00;99277.88;5076553;28;20189;-72
2021/12/13 07:19:02;;;;;;;16.90;11.30;;;;;;;5.41;100.00;99273.56;5076684;28;20204;-73
2021/12/13 07:21:40;;;;;;;16.50;11.93;;;;;;;5.39;100.00;99278.19;5076664;28;20190;-74
2021/12/13 07:24:35;;;;;;;16.37;11.23;;;;;;;5.39;100.00;99272.91;5076695;28;20504;-73
2021/12/13 07:27:13;;;;;;;16.00;11.60;;;;;;;5.36;100.00;99271.41;5074324;28;20232;-73
2021/12/13 07:29:42;;;;;;;14.53;11.10;;;;;;;5.38;100.00;99273.88;5076269;28;20212;-72
2021/12/13 07:32:18;;;;;;;15.83;10.87;;;;;;;5.38;100.00;99277.34;5074740;28;20188;-72
2021/12/13 07:34:53;;;;;;;17.37;11.50;;;;;;;5.38;100.00;99284.44;5074730;28;20220;-74
2021/12/13 07:37:37;;;;;;;13.73;11.23;;;;;;;5.37;100.00;99275.69;5076657;28;20192;-72
2021/12/13 07:40:32;;;;;;;12.87;10.73;;;;;;;5.36;100.00;99275.84;5076260;28;20196;-72
2021/12/13 07:43:16;;;;;;;16.13;10.10;;;;;;;5.38;100.00;99285.25;5076074;28;20193;-73
2021/12/13 07:46:01;;;;;;;14.63;10.97;;;;;;;5.41;100.00;99284.09;5075903;28;20221;-73
2021/12/13 07:48:50;;;;;;;17.77;10.67;;;;;;;5.44;100.00;99289.06;5075961;28;20253;-73
2021/12/13 07:51:16;;;;;;;15.43;10.20;;;;;;;5.43;100.00;99285.59;5076193;28;20225;-72
2021/12/13 07:53:53;;;;;;;12.57;9.77;;;;;;;5.45;100.00;99293.38;5076318;28;20254;-73
2021/12/13 07:56:33;;;;;;;14.43;10.60;;;;;;;5.44;100.00;99295.19;5076224;28;20193;-72
2021/12/13 07:59:09;;;;;;;17.70;10.93;;;;;;;5.42;100.00;99291.88;5076054;28;20188;-72
2021/12/13 08:01:42;;;;;;;15.27;10.80;;;;;;;5.45;100.00;99294.19;5076035;28;20212;-73
2021/12/13 08:04:13;;;;;;;15.73;11.50;;;;;;;5.47;100.00;99299.31;5075342;28;20243;-72
2021/12/13 08:06:45;;;;;;;19.40;11.53;;;;;;;5.55;100.00;99301.97;5075807;28;20192;-72
2021/12/13 08:09:21;;;;;;;17.97;11.40;;;;;;;5.56;100.00;99293.09;5075756;28;20204;-73
2021/12/13 08:12:04;;;;;;;16.40;11.23;;;;;;;5.61;100.00;99296.09;5076173;28;20216;-72
2021/12/13 08:14:34;;;;;;;14.30;10.97;;;;;;;5.67;100.00;99306.00;5075791;28;20227;-73
2021/12/13 08:17:10;;;;;;;16.73;11.77;;;;;;;5.70;100.00;99301.22;5075880;28;20284;-74
2021/12/13 08:19:37;;;;;;;17.70;10.87;;;;;;;5.73;100.00;99298.28;5081067;28;20538;-72
2021/12/13 08:22:11;;;;;;;13.27;11.10;;;;;;;5.75;100.00;99306.88;5082849;28;20547;-73
2021/12/13 08:24:46;;;;;;;16.50;11.43;;;;;;;5.81;100.00;99302.81;5082697;28;20220;-73
2021/12/13 08:27:35;;;;;;;25.07;11.60;;;;;;;5.86;100.00;99300.50;5082553;28;20194;-73
2021/12/13 08:30:20;;;;;;;42.87;14.67;;;;;;;5.95;100.00;99307.47;5083070;28;20224;-73
2021/12/13 08:32:58;;;;;;;21.77;11.40;;;;;;;6.03;100.00;99307.50;5082317;28;20584;-73
2021/12/13 08:35:25;;;;;;;31.37;12.60;;;;;;;6.24;100.00;99294.72;5082676;28;20226;-73
2021/12/13 08:38:00;;;;;;;61.00;16.20;;;;;;;6.28;100.00;99307.41;5082469;28;20259;-72
2021/12/13 08:40:30;;;;;;;32.83;13.50;;;;;;;6.32;100.00;99303.47;5082227;28;20200;-73
2021/12/13 08:42:58;;;;;;;16.23;9.63;;;;;;;6.40;100.00;99306.13;5082294;28;20497;-73
2021/12/13 08:45:31;;;;;;;70.70;17.93;;;;;;;6.31;100.00;99309.75;5082112;28;20224;-73
2021/12/13 08:48:03;;;;;;;43.27;13.33;;;;;;;6.33;100.00;99315.69;5082645;28;20533;-74
2021/12/13 08:50:39;;;;;;;38.53;13.83;;;;;;;6.29;100.00;99310.91;5082184;28;20212;-74
2021/12/13 08:53:13;;;;;;;20.97;11.57;;;;;;;6.32;100.00;99323.75;5082433;28;20198;-74
2021/12/13 08:55:45;;;;;;;37.97;14.00;;;;;;;6.31;100.00;99317.66;5082390;28;20221;-74
2021/12/13 08:58:17;;;;;;;48.37;16.03;;;;;;;6.36;100.00;99315.38;5082004;28;20192;-74
2021/12/13 09:01:13;;;;;;;36.37;13.10;;;;;;;6.41;100.00;99322.78;5082428;28;20185;-75
2021/12/13 09:03:43;;;;;;;34.23;13.43;;;;;;;6.43;100.00;99321.63;5081493;28;20200;-75
2021/12/13 09:06:18;;;;;;;40.63;14.70;;;;;;;6.47;100.00;99314.25;5082488;28;20199;-74
2021/12/13 09:08:48;;;;;;;64.60;17.50;;;;;;;6.44;100.00;99322.47;5082095;28;20197;-75
2021/12/13 09:11:18;;;;;;;21.13;10.90;;;;;;;6.46;100.00;99325.78;5081980;28;20208;-74
2021/12/13 09:14:14;;;;;;;20.37;12.20;;;;;;;6.55;100.00;99325.63;5082300;28;20374;-75
2021/12/13 09:17:06;;;;;;;21.17;11.53;;;;;;;6.65;100.00;99336.06;5080478;28;20204;-74
2021/12/13 09:19:36;;;;;;;15.70;11.40;;;;;;;6.68;100.00;99335.72;5082136;28;20213;-74
2021/12/13 09:22:08;;;;;;;13.67;10.87;;;;;;;6.77;100.00;99338.22;5081864;28;20192;-74
2021/12/13 09:24:52;;;;;;;13.70;10.40;;;;;;;6.74;100.00;99337.72;5082233;28;20225;-74
2021/12/13 09:27:37;;;;;;;15.43;11.20;;;;;;;6.74;100.00;99332.44;5082222;28;20191;-74
2021/12/13 09:30:12;;;;;;;17.37;11.60;;;;;;;6.83;100.00;99339.41;5080783;28;20213;-74
2021/12/13 09:32:39;;;;;;;13.00;10.90;;;;;;;6.88;100.00;99337.88;5078829;28;20204;-74
2021/12/13 09:35:23;;;;;;;15.37;11.60;;;;;;;7.02;100.00;99337.22;5078936;28;20240;-74
2021/12/13 09:37:51;;;;;;;15.83;11.50;;;;;;;7.03;100.00;99330.97;5078643;28;20189;-74
2021/12/13 09:40:25;;;;;;;16.70;10.93;;;;;;;7.03;100.00;99327.50;5078553;28;20538;-74
2021/12/13 09:42:58;;;;;;;12.80;10.57;;;;;;;7.12;99.47;99334.44;5078764;28;20299;-74
2021/12/13 09:45:42;;;;;;;16.87;11.33;;;;;;;7.22;99.37;99337.72;5078764;28;20235;-74
2021/12/13 09:48:30;;;;;;;14.93;10.80;;;;;;;7.24;99.72;99330.47;5078465;28;20600;-74
2021/12/13 09:51:21;;;;;;;20.93;13.17;;;;;;;7.15;99.69;99324.34;5078566;28;20212;-75
2021/12/13 09:53:51;;;;;;;18.93;12.10;;;;;;;7.22;99.12;99332.44;5078365;28;20224;-72
2021/12/13 09:56:21;;;;;;;14.67;11.13;;;;;;;7.27;98.49;99328.31;5078300;28;20604;-72
2021/12/13 09:58:52;;;;;;;13.97;11.00;;;;;;;7.24;98.62;99322.53;5078594;28;20196;-73
2021/12/13 10:01:24;;;;;;;18.37;12.23;;;;;;;7.33;99.98;99324.16;5078294;28;20197;-73
2021/12/13 10:04:07;;;;;;;16.20;11.33;;;;;;;7.33;99.38;99316.22;5078344;28;20643;-74
2021/12/13 10:06:38;;;;;;;18.97;11.57;;;;;;;7.48;98.91;99314.53;5078463;28;20278;-73
2021/12/13 10:09:08;;;;;;;19.37;12.10;;;;;;;7.56;99.02;99310.03;5078430;28;20203;-74
2021/12/13 10:11:49;;;;;;;19.10;11.77;;;;;;;7.49;99.12;99316.19;5078066;28;20219;-74
2021/12/13 10:14:19;;;;;;;19.30;12.73;;;;;;;7.41;99.18;99308.25;5078217;28;20228;-74
2021/12/13 10:16:49;;;;;;;19.70;13.57;;;;;;;7.50;99.46;99304.59;5078176;28;20185;-73
2021/12/13 10:19:22;;;;;;;15.33;11.83;;;;;;;7.63;99.77;99302.25;5078263;28;20205;-74
2021/12/13 10:21:49;;;;;;;20.70;12.47;;;;;;;7.60;99.22;99311.34;5078370;28;20196;-74
2021/12/13 10:24:18;;;;;;;20.30;12.83;;;;;;;7.83;97.74;99308.81;5077920;28;20224;-73
2021/12/13 10:26:47;;;;;;;19.70;13.33;;;;;;;7.69;98.30;99306.88;5077949;28;20249;-73
2021/12/13 10:29:15;;;;;;;14.27;11.37;;;;;;;7.95;96.79;99310.06;5077754;28;20204;-74
2021/12/13 10:31:57;;;;;;;19.80;12.33;;;;;;;7.85;98.06;99307.66;5077598;28;20200;-73
2021/12/13 10:34:28;;;;;;;18.17;11.60;;;;;;;7.82;98.47;99296.56;5077604;28;20220;-73
2021/12/13 10:37:02;;;;;;;15.10;12.00;;;;;;;7.73;98.87;99302.88;5077647;28;20189;-73
2021/12/13 10:39:35;;;;;;;16.23;11.50;;;;;;;8.00;98.28;99289.19;5077458;28;20191;-73
2021/12/13 10:42:09;;;;;;;18.37;12.13;;;;;;;7.84;98.66;99287.47;5076515;28;20208;-73
2021/12/13 10:44:43;;;;;;;19.23;12.67;;;;;;;7.69;100.00;99288.34;5077803;28;20221;-74
2021/12/13 10:47:15;;;;;;;17.87;12.07;;;;;;;7.74;100.00;99284.19;5077785;28;20192;-72
2021/12/13 10:49:45;;;;;;;16.10;12.40;;;;;;;7.68;99.94;99287.53;5077555;28;20508;-72
2021/12/13 10:52:28;;;;;;;17.07;11.80;;;;;;;7.79;99.41;99292.44;5077520;28;20200;-73
2021/12/13 10:54:58;;;;;;;16.50;11.90;;;;;;;7.89;98.79;99294.88;5077102;28;20616;-73
2021/12/13 10:57:30;;;;;;;17.27;11.10;;;;;;;7.90;98.75;99292.06;5077456;28;20192;-73
2021/12/13 10:59:57;;;;;;;16.80;11.73;;;;;;;7.96;97.89;99294.03;5077456;28;20189;-73
2021/12/13 11:02:33;;;;;;;15.63;11.10;;;;;;;8.05;97.70;99292.19;5077770;28;20201;-73
2021/12/13 11:05:05;;;;;;;17.53;11.63;;;;;;;8.01;96.89;99288.22;5077109;28;20227;-73
2021/12/13 11:07:32;;;;;;;17.17;11.37;;;;;;;8.02;97.71;99288.06;5077042;28;20189;-73
2021/12/13 11:10:00;;;;;;;19.80;11.87;;;;;;;8.02;97.54;99282.75;5076738;28;20224;-73
2021/12/13 11:12:37;;;;;;;16.67;11.60;;;;;;;8.03;97.44;99280.91;5077110;28;20216;-73
2021/12/13 11:15:09;;;;;;;17.13;12.10;;;;;;;8.07;97.91;99275.13;5077373;28;20247;-69
2021/12/13 11:17:36;;;;;;;15.70;11.90;;;;;;;8.09;97.30;99273.09;5076842;28;20193;-68
2021/12/13 11:20:13;;;;;;;16.97;11.43;;;;;;;8.00;98.91;99263.56;5076851;28;20476;-69
2021/12/13 11:22:40;;;;;;;21.20;12.60;;;;;;;8.44;97.21;99261.16;5076914;28;20191;-69
2021/12/13 11:25:18;;;;;;;19.13;11.60;;;;;;;8.43;97.24;99262.19;5076722;28;20220;-69
2021/12/13 11:27:46;;;;;;;17.37;11.23;;;;;;;8.48;96.34;99252.69;5076594;28;20189;-69
2021/12/13 11:30:18;;;;;;;15.63;11.73;;;;;;;8.24;97.74;99259.97;5076658;28;20247;-69
2021/12/13 11:32:57;;;;;;;18.87;11.50;;;;;;;8.58;97.79;99260.41;5076493;28;20592;-69
2021/12/13 11:36:01;;;;;;;15.83;11.60;;;;;;;8.17;99.74;99251.88;5076688;28;20281;-70
2021/12/13 11:39:04;;;;;;;19.20;12.20;;;;;;;8.31;99.77;99256.47;5076876;28;20208;-70
2021/12/13 11:41:56;;;;;;;20.50;11.20;;;;;;;8.66;97.47;99252.41;5076541;28;20188;-69
2021/12/13 11:44:44;;;;;;;15.80;11.17;;;;;;;8.43;98.52;99259.53;5076515;28;20221;-70
2021/12/13 11:47:50;;;;;;;16.23;11.90;;;;;;;8.22;100.00;99260.16;5076358;28;20189;-70
2021/12/13 11:51:05;;;;;;;16.93;11.47;;;;;;;8.27;100.00;99256.97;5076401;28;20469;-69
2021/12/13 11:54:04;;;;;;;16.47;10.20;;;;;;;8.36;100.00;99255.91;5075971;28;20267;-69
2021/12/13 11:56:55;;;;;;;16.90;10.07;;;;;;;8.39;99.14;99248.47;5076185;28;20196;-69
2021/12/13 11:59:56;;;;;;;15.27;9.73;;;;;;;8.35;100.00;99246.31;5076264;28;20189;-69
2021/12/13 12:02:48;;;;;;;16.20;10.93;;;;;;;8.34;100.00;99244.69;5076250;28;20189;-70
2021/12/13 12:06:03;;;;;;;16.33;11.10;;;;;;;8.42;100.00;99249.94;5076474;28;20216;-70